createdAt,value
2018-04-28T00:00:04.483Z,1001.14
2018-04-28T00:00:30.616Z,1001.22
2018-04-28T00:00:56.759Z,1001.17
2018-04-28T00:01:22.889Z,1001.14
2018-04-28T00:01:49.024Z,1001.17
2018-04-28T00:02:15.162Z,1001.18
2018-04-28T00:02:41.307Z,1001.2
2018-04-28T00:03:07.507Z,1001.2
2018-04-28T00:03:33.642Z,1001.19
2018-04-28T00:03:59.786Z,1001.22
2018-04-28T00:04:25.919Z,1001.17
2018-04-28T00:04:52.057Z,1001.17
2018-04-28T00:05:18.206Z,1001.19
2018-04-28T00:05:44.337Z,1001.24
2018-04-28T00:06:10.502Z,1001.19
2018-04-28T00:06:36.637Z,1001.24
2018-04-28T00:07:02.782Z,1001.19
2018-04-28T00:07:28.919Z,1001.21
2018-04-28T00:07:55.101Z,1001.18
2018-04-28T00:08:21.224Z,1001.26
2018-04-28T00:08:47.363Z,1001.22
2018-04-28T00:09:13.502Z,1001.28
2018-04-28T00:09:39.642Z,1001.27
2018-04-28T00:10:05.828Z,1001.28
2018-04-28T00:10:31.963Z,1001.23
2018-04-28T00:10:58.100Z,1001.2
2018-04-28T00:11:24.236Z,1001.23
2018-04-28T00:11:50.376Z,1001.2
2018-04-28T00:12:16.521Z,1001.21
2018-04-28T00:12:42.659Z,1001.23
2018-04-28T00:13:08.803Z,1001.21
2018-04-28T00:13:34.951Z,1001.2
2018-04-28T00:14:01.096Z,1001.21
2018-04-28T00:14:27.233Z,1001.18
2018-04-28T00:14:53.370Z,1001.21
2018-04-28T00:15:19.510Z,1001.2
2018-04-28T00:15:45.669Z,1001.21
2018-04-28T00:16:11.807Z,1001.19
2018-04-28T00:16:37.948Z,1001.18
2018-04-28T00:17:04.080Z,1001.19
2018-04-28T00:17:30.219Z,1001.2
2018-04-28T00:17:56.365Z,1001.24
2018-04-28T00:18:22.501Z,1001.19
2018-04-28T00:18:48.663Z,1001.22
2018-04-28T00:19:14.799Z,1001.19
2018-04-28T00:19:40.932Z,1001.21
2018-04-28T00:20:07.124Z,1001.19
2018-04-28T00:20:33.256Z,1001.15
2018-04-28T00:20:59.404Z,1001.17
2018-04-28T00:21:25.581Z,1001.18
2018-04-28T00:21:51.725Z,1001.17
2018-04-28T00:22:17.884Z,1001.14
2018-04-28T00:22:44.049Z,1001.17
2018-04-28T00:23:10.183Z,1001.17
2018-04-28T00:23:36.322Z,1001.16
2018-04-28T00:24:02.462Z,1001.17
2018-04-28T00:24:28.601Z,1001.17
2018-04-28T00:24:54.793Z,1001.17
2018-04-28T00:25:20.930Z,1001.18
2018-04-28T00:25:47.067Z,1001.17
2018-04-28T00:26:13.209Z,1001.17
2018-04-28T00:26:39.374Z,1001.16
2018-04-28T00:27:05.511Z,1001.15
2018-04-28T00:27:31.648Z,1001.19
2018-04-28T00:27:57.787Z,1001.14
2018-04-28T00:28:23.924Z,1001.12
2018-04-28T00:28:50.064Z,1001.12
2018-04-28T00:29:16.198Z,1001.14
2018-04-28T00:29:42.334Z,1001.13
2018-04-28T00:30:08.503Z,1001.11
2018-04-28T00:30:34.642Z,1001.15
2018-04-28T00:31:00.778Z,1001.13
2018-04-28T00:31:26.921Z,1001.16
2018-04-28T00:31:53.063Z,1001.17
2018-04-28T00:32:19.197Z,1001.13
2018-04-28T00:32:45.338Z,1001.14
2018-04-28T00:33:11.477Z,1001.13
2018-04-28T00:33:37.605Z,1001.17
2018-04-28T00:34:03.780Z,1001.17
2018-04-28T00:34:29.937Z,1001.17
2018-04-28T00:34:56.072Z,1001.17
2018-04-28T00:35:22.214Z,1001.18
2018-04-28T00:35:48.350Z,1001.2
2018-04-28T00:36:14.485Z,1001.2
2018-04-28T00:36:40.626Z,1001.2
2018-04-28T00:37:06.795Z,1001.16
2018-04-28T00:37:32.937Z,1001.18
2018-04-28T00:37:59.090Z,1001.17
2018-04-28T00:38:25.220Z,1001.16
2018-04-28T00:38:51.360Z,1001.18
2018-04-28T00:39:17.503Z,1001.14
2018-04-28T00:39:43.635Z,1001.18
2018-04-28T00:40:09.770Z,1001.13
2018-04-28T00:40:35.908Z,1001.17
2018-04-28T00:41:02.049Z,1001.18
2018-04-28T00:41:28.177Z,1001.18
2018-04-28T00:41:54.311Z,1001.2
2018-04-28T00:42:20.449Z,1001.18
2018-04-28T00:42:46.591Z,1001.22
2018-04-28T00:43:12.719Z,1001.2
2018-04-28T00:43:38.861Z,1001.21
2018-04-28T00:44:05.001Z,1001.19
2018-04-28T00:44:31.142Z,1001.17
2018-04-28T00:44:57.273Z,1001.19
2018-04-28T00:45:23.414Z,1001.19
2018-04-28T00:45:49.548Z,1001.22
2018-04-28T00:46:15.693Z,1001.19
2018-04-28T00:46:41.826Z,1001.19
2018-04-28T00:47:07.956Z,1001.21
2018-04-28T00:47:34.107Z,1001.19
2018-04-28T00:48:00.293Z,1001.18
2018-04-28T00:48:26.459Z,1001.17
2018-04-28T00:48:52.619Z,1001.18
2018-04-28T00:49:18.758Z,1001.17
2018-04-28T00:49:44.890Z,1001.2
2018-04-28T00:50:11.035Z,1001.18
2018-04-28T00:50:37.172Z,1001.18
2018-04-28T00:51:03.308Z,1001.2
2018-04-28T00:51:29.474Z,1001.17
2018-04-28T00:51:55.613Z,1001.17
2018-04-28T00:52:21.753Z,1001.18
2018-04-28T00:52:47.886Z,1001.17
2018-04-28T00:53:14.016Z,1001.14
2018-04-28T00:53:40.159Z,1001.14
2018-04-28T00:54:06.304Z,1001.14
2018-04-28T00:54:32.435Z,1001.13
2018-04-28T00:54:58.572Z,1001.12
2018-04-28T00:55:27.834Z,1001.15
2018-04-28T00:55:53.977Z,1001.14
2018-04-28T00:56:20.111Z,1001.11
2018-04-28T00:56:46.251Z,1001.13
2018-04-28T00:57:12.391Z,1001.12
2018-04-28T00:57:38.533Z,1001.13
2018-04-28T00:58:04.664Z,1001.16
2018-04-28T00:58:30.805Z,1001.14
2018-04-28T00:58:56.949Z,1001.13
2018-04-28T00:59:23.076Z,1001.16
2018-04-28T00:59:49.220Z,1001.12
2018-04-28T01:00:15.355Z,1001.13
2018-04-28T01:00:41.496Z,1001.13
2018-04-28T01:01:07.647Z,1001.13
2018-04-28T01:01:33.816Z,1001.16
2018-04-28T01:01:59.972Z,1001.12
2018-04-28T01:02:26.124Z,1001.14
2018-04-28T01:02:52.263Z,1001.13
2018-04-28T01:03:18.407Z,1001.14
2018-04-28T01:03:44.589Z,1001.15
2018-04-28T01:04:10.729Z,1001.14
2018-04-28T01:04:36.895Z,1001.15
2018-04-28T01:05:03.034Z,1001.13
2018-04-28T01:05:29.196Z,1001.18
2018-04-28T01:05:55.351Z,1001.18
2018-04-28T01:06:21.483Z,1001.15
2018-04-28T01:06:47.644Z,1001.2
2018-04-28T01:07:13.781Z,1001.15
2018-04-28T01:07:39.947Z,1001.15
2018-04-28T01:08:06.082Z,1001.13
2018-04-28T01:08:32.230Z,1001.15
2018-04-28T01:08:58.358Z,1001.12
2018-04-28T01:09:24.561Z,1001.16
2018-04-28T01:09:50.688Z,1001.11
2018-04-28T01:10:16.840Z,1001.13
2018-04-28T01:10:42.972Z,1001.18
2018-04-28T01:11:09.139Z,1001.12
2018-04-28T01:11:35.266Z,1001.15
2018-04-28T01:12:01.405Z,1001.13
2018-04-28T01:12:27.536Z,1001.15
2018-04-28T01:12:53.699Z,1001.2
2018-04-28T01:13:19.843Z,1001.17
2018-04-28T01:13:45.980Z,1001.18
2018-04-28T01:14:12.141Z,1001.19
2018-04-28T01:14:38.283Z,1001.21
2018-04-28T01:15:04.426Z,1001.23
2018-04-28T01:15:30.639Z,1001.23
2018-04-28T01:15:56.717Z,1001.25
2018-04-28T01:16:22.885Z,1001.3
2018-04-28T01:16:49.026Z,1001.3
2018-04-28T01:17:15.162Z,1001.31
2018-04-28T01:17:41.303Z,1001.31
2018-04-28T01:18:07.439Z,1001.31
2018-04-28T01:18:33.576Z,1001.31
2018-04-28T01:18:59.716Z,1001.33
2018-04-28T01:19:25.875Z,1001.35
2018-04-28T01:19:52.019Z,1001.37
2018-04-28T01:20:18.152Z,1001.36
2018-04-28T01:20:44.292Z,1001.33
2018-04-28T01:21:10.456Z,1001.35
2018-04-28T01:21:36.590Z,1001.36
2018-04-28T01:22:02.726Z,1001.38
2018-04-28T01:22:28.869Z,1001.37
2018-04-28T01:22:55.005Z,1001.4
2018-04-28T01:23:21.175Z,1001.41
2018-04-28T01:23:47.307Z,1001.35
2018-04-28T01:24:13.452Z,1001.41
2018-04-28T01:24:39.613Z,1001.39
2018-04-28T01:25:05.747Z,1001.4
2018-04-28T01:25:31.890Z,1001.38
2018-04-28T01:25:58.027Z,1001.39
2018-04-28T01:26:24.162Z,1001.36
2018-04-28T01:26:50.303Z,1001.35
2018-04-28T01:27:16.437Z,1001.4
2018-04-28T01:27:42.572Z,1001.39
2018-04-28T01:28:08.711Z,1001.37
2018-04-28T01:28:34.875Z,1001.37
2018-04-28T01:29:01.015Z,1001.37
2018-04-28T01:29:27.184Z,1001.36
2018-04-28T01:29:53.350Z,1001.37
2018-04-28T01:30:19.476Z,1001.38
2018-04-28T01:30:45.614Z,1001.37
2018-04-28T01:31:11.755Z,1001.41
2018-04-28T01:31:37.918Z,1001.39
2018-04-28T01:32:04.064Z,1001.37
2018-04-28T01:32:30.189Z,1001.37
2018-04-28T01:32:56.334Z,1001.38
2018-04-28T01:33:22.468Z,1001.4
2018-04-28T01:33:48.636Z,1001.42
2018-04-28T01:34:14.781Z,1001.37
2018-04-28T01:34:40.949Z,1001.39
2018-04-28T01:35:07.081Z,1001.39
2018-04-28T01:35:33.226Z,1001.37
2018-04-28T01:35:59.381Z,1001.4
2018-04-28T01:36:25.507Z,1001.36
2018-04-28T01:36:51.643Z,1001.38
2018-04-28T01:37:17.805Z,1001.43
2018-04-28T01:37:43.972Z,1001.38
2018-04-28T01:38:10.104Z,1001.36
2018-04-28T01:38:36.243Z,1001.41
2018-04-28T01:39:02.429Z,1001.42
2018-04-28T01:39:28.564Z,1001.43
2018-04-28T01:39:54.703Z,1001.46
2018-04-28T01:40:20.845Z,1001.44
2018-04-28T01:40:46.975Z,1001.44
2018-04-28T01:41:13.117Z,1001.39
2018-04-28T01:41:39.252Z,1001.45
2018-04-28T01:42:05.396Z,1001.45
2018-04-28T01:42:31.552Z,1001.46
2018-04-28T01:42:57.801Z,1001.51
2018-04-28T01:43:23.855Z,1001.47
2018-04-28T01:43:49.995Z,1001.47
2018-04-28T01:44:16.132Z,1001.48
2018-04-28T01:44:42.269Z,1001.5
2018-04-28T01:45:08.434Z,1001.5
2018-04-28T01:45:34.569Z,1001.5
2018-04-28T01:46:00.732Z,1001.48
2018-04-28T01:46:26.890Z,1001.52
2018-04-28T01:46:53.033Z,1001.48
2018-04-28T01:47:19.171Z,1001.52
2018-04-28T01:47:45.306Z,1001.54
2018-04-28T01:48:11.466Z,1001.5
2018-04-28T01:48:37.628Z,1001.52
2018-04-28T01:49:03.763Z,1001.53
2018-04-28T01:49:29.932Z,1001.54
2018-04-28T01:49:56.078Z,1001.56
2018-04-28T01:50:22.243Z,1001.54
2018-04-28T01:50:48.371Z,1001.52
2018-04-28T01:51:14.537Z,1001.55
2018-04-28T01:51:40.691Z,1001.55
2018-04-28T01:52:06.834Z,1001.55
2018-04-28T01:52:32.973Z,1001.58
2018-04-28T01:52:59.136Z,1001.58
2018-04-28T01:53:25.267Z,1001.62
2018-04-28T01:53:51.413Z,1001.55
2018-04-28T01:54:17.553Z,1001.56
2018-04-28T01:54:43.716Z,1001.57
2018-04-28T01:55:09.852Z,1001.59
2018-04-28T01:55:35.989Z,1001.57
2018-04-28T01:56:02.127Z,1001.51
2018-04-28T01:56:28.264Z,1001.56
2018-04-28T01:56:54.413Z,1001.59
2018-04-28T01:57:20.550Z,1001.55
2018-04-28T01:57:46.692Z,1001.58
2018-04-28T01:58:12.822Z,1001.59
2018-04-28T01:58:38.954Z,1001.53
2018-04-28T01:59:05.125Z,1001.58
2018-04-28T01:59:31.262Z,1001.54
2018-04-28T01:59:57.401Z,1001.55
2018-04-28T02:00:23.539Z,1001.5
2018-04-28T02:00:49.684Z,1001.5
2018-04-28T02:01:15.838Z,1001.53
2018-04-28T02:01:41.982Z,1001.56
2018-04-28T02:02:08.120Z,1001.55
2018-04-28T02:02:34.279Z,1001.53
2018-04-28T02:03:00.421Z,1001.55
2018-04-28T02:03:26.555Z,1001.54
2018-04-28T02:03:52.697Z,1001.56
2018-04-28T02:04:18.836Z,1001.57
2018-04-28T02:04:44.969Z,1001.55
2018-04-28T02:05:11.113Z,1001.57
2018-04-28T02:05:37.248Z,1001.58
2018-04-28T02:06:03.395Z,1001.6
2018-04-28T02:06:29.577Z,1001.64
2018-04-28T02:06:55.714Z,1001.62
2018-04-28T02:07:21.850Z,1001.62
2018-04-28T02:07:47.992Z,1001.63
2018-04-28T02:08:14.129Z,1001.59
2018-04-28T02:08:40.265Z,1001.62
2018-04-28T02:09:06.401Z,1001.59
2018-04-28T02:09:32.544Z,1001.62
2018-04-28T02:09:58.701Z,1001.59
2018-04-28T02:10:24.837Z,1001.58
2018-04-28T02:10:50.977Z,1001.58
2018-04-28T02:11:17.107Z,1001.58
2018-04-28T02:11:43.249Z,1001.58
2018-04-28T02:12:09.411Z,1001.62
2018-04-28T02:12:35.554Z,1001.62
2018-04-28T02:13:01.695Z,1001.62
2018-04-28T02:13:27.827Z,1001.62
2018-04-28T02:13:53.977Z,1001.59
2018-04-28T02:14:20.115Z,1001.66
2018-04-28T02:14:46.257Z,1001.66
2018-04-28T02:15:12.388Z,1001.68
2018-04-28T02:15:38.528Z,1001.67
2018-04-28T02:16:04.662Z,1001.69
2018-04-28T02:16:30.801Z,1001.68
2018-04-28T02:16:56.943Z,1001.67
2018-04-28T02:17:23.085Z,1001.71
2018-04-28T02:17:49.225Z,1001.73
2018-04-28T02:18:15.390Z,1001.74
2018-04-28T02:18:41.525Z,1001.71
2018-04-28T02:19:07.689Z,1001.73
2018-04-28T02:19:33.829Z,1001.71
2018-04-28T02:19:59.976Z,1001.7
2018-04-28T02:20:26.147Z,1001.71
2018-04-28T02:20:52.290Z,1001.73
2018-04-28T02:21:18.419Z,1001.71
2018-04-28T02:21:44.566Z,1001.69
2018-04-28T02:22:10.717Z,1001.66
2018-04-28T02:22:36.860Z,1001.68
2018-04-28T02:23:03.045Z,1001.69
2018-04-28T02:23:29.181Z,1001.69
2018-04-28T02:23:55.326Z,1001.7
2018-04-28T02:24:21.463Z,1001.73
2018-04-28T02:24:47.592Z,1001.73
2018-04-28T02:25:13.751Z,1001.74
2018-04-28T02:25:39.916Z,1001.73
2018-04-28T02:26:06.081Z,1001.76
2018-04-28T02:26:32.217Z,1001.76
2018-04-28T02:26:58.361Z,1001.75
2018-04-28T02:27:24.499Z,1001.75
2018-04-28T02:27:50.639Z,1001.76
2018-04-28T02:28:16.797Z,1001.78
2018-04-28T02:28:42.930Z,1001.79
2018-04-28T02:29:09.067Z,1001.81
2018-04-28T02:29:35.233Z,1001.83
2018-04-28T02:30:01.369Z,1001.8
2018-04-28T02:30:27.528Z,1001.83
2018-04-28T02:30:53.682Z,1001.83
2018-04-28T02:31:19.877Z,1001.85
2018-04-28T02:31:46.034Z,1001.82
2018-04-28T02:32:12.174Z,1001.82
2018-04-28T02:32:38.317Z,1001.82
2018-04-28T02:33:04.453Z,1001.84
2018-04-28T02:33:30.591Z,1001.83
2018-04-28T02:33:56.790Z,1001.84
2018-04-28T02:34:22.921Z,1001.83
2018-04-28T02:34:49.094Z,1001.84
2018-04-28T02:35:15.234Z,1001.88
2018-04-28T02:35:41.373Z,1001.87
2018-04-28T02:36:07.511Z,1001.88
2018-04-28T02:36:33.702Z,1001.87
2018-04-28T02:36:59.871Z,1001.88
2018-04-28T02:37:26.011Z,1001.87
2018-04-28T02:37:52.180Z,1001.91
2018-04-28T02:38:18.338Z,1001.89
2018-04-28T02:38:44.544Z,1001.86
2018-04-28T02:39:10.706Z,1001.91
2018-04-28T02:39:36.852Z,1001.88
2018-04-28T02:40:03.015Z,1001.96
2018-04-28T02:40:29.229Z,1001.94
2018-04-28T02:40:55.355Z,1001.88
2018-04-28T02:41:21.524Z,1001.9
2018-04-28T02:41:47.703Z,1001.89
2018-04-28T02:42:13.843Z,1001.91
2018-04-28T02:42:40.027Z,1001.9
2018-04-28T02:43:06.187Z,1001.91
2018-04-28T02:43:32.320Z,1001.9
2018-04-28T02:43:58.491Z,1001.95
2018-04-28T02:44:24.677Z,1001.94
2018-04-28T02:44:50.924Z,1001.94
2018-04-28T02:45:17.027Z,1001.99
2018-04-28T02:45:43.161Z,1001.94
2018-04-28T02:46:09.307Z,1001.94
2018-04-28T02:46:35.472Z,1001.97
2018-04-28T02:47:01.610Z,1001.95
2018-04-28T02:47:27.773Z,1001.98
2018-04-28T02:47:53.934Z,1002.02
2018-04-28T02:48:20.121Z,1001.94
2018-04-28T02:48:46.259Z,1001.99
2018-04-28T02:49:12.392Z,1001.96
2018-04-28T02:49:38.561Z,1001.96
2018-04-28T02:50:04.783Z,1002.03
2018-04-28T02:50:30.857Z,1002.02
2018-04-28T02:50:57.017Z,1001.99
2018-04-28T02:51:23.209Z,1001.99
2018-04-28T02:51:49.360Z,1002
2018-04-28T02:52:15.556Z,1001.99
2018-04-28T02:52:41.694Z,1001.98
2018-04-28T02:53:07.937Z,1002.02
2018-04-28T02:53:34.010Z,1001.96
2018-04-28T02:54:00.168Z,1001.95
2018-04-28T02:54:26.306Z,1001.97
2018-04-28T02:54:52.449Z,1001.97
2018-04-28T02:55:18.586Z,1001.99
2018-04-28T02:55:44.753Z,1002.02
2018-04-28T02:56:10.967Z,1001.97
2018-04-28T02:56:37.125Z,1002.01
2018-04-28T02:57:03.265Z,1002.01
2018-04-28T02:57:29.424Z,1002.01
2018-04-28T02:57:55.578Z,1001.99
2018-04-28T02:58:21.723Z,1002.04
2018-04-28T02:58:47.886Z,1002.02
2018-04-28T02:59:14.023Z,1002
2018-04-28T02:59:40.164Z,1001.97
2018-04-28T03:00:06.305Z,1002
2018-04-28T03:00:32.431Z,1002.03
2018-04-28T03:00:58.630Z,1002.02
2018-04-28T03:01:24.795Z,1001.99
2018-04-28T03:01:50.972Z,1002.01
2018-04-28T03:02:17.114Z,1002.01
2018-04-28T03:02:43.273Z,1002.02
2018-04-28T03:03:09.430Z,1002.02
2018-04-28T03:03:35.645Z,1002.03
2018-04-28T03:04:01.809Z,1001.99
2018-04-28T03:04:27.949Z,1002
2018-04-28T03:04:54.112Z,1002.02
2018-04-28T03:05:20.289Z,1002.05
2018-04-28T03:05:46.458Z,1002.08
2018-04-28T03:06:12.621Z,1002.04
2018-04-28T03:06:38.800Z,1002.07
2018-04-28T03:07:04.965Z,1002.07
2018-04-28T03:07:31.129Z,1002.08
2018-04-28T03:07:57.319Z,1002.13
2018-04-28T03:08:23.448Z,1002.15
2018-04-28T03:08:49.607Z,1002.13
2018-04-28T03:09:15.792Z,1002.11
2018-04-28T03:09:41.951Z,1002.12
2018-04-28T03:10:08.100Z,1002.12
2018-04-28T03:10:34.229Z,1002.12
2018-04-28T03:11:00.394Z,1002.1
2018-04-28T03:11:26.526Z,1002.11
2018-04-28T03:11:52.675Z,1002.11
2018-04-28T03:12:18.843Z,1002.13
2018-04-28T03:12:44.983Z,1002.16
2018-04-28T03:13:11.138Z,1002.16
2018-04-28T03:13:37.276Z,1002.16
2018-04-28T03:14:03.458Z,1002.16
2018-04-28T03:14:29.646Z,1002.14
2018-04-28T03:14:55.788Z,1002.16
2018-04-28T03:15:21.926Z,1002.16
2018-04-28T03:15:48.095Z,1002.18
2018-04-28T03:16:14.233Z,1002.16
2018-04-28T03:16:40.434Z,1002.19
2018-04-28T03:17:06.560Z,1002.19
2018-04-28T03:17:32.702Z,1002.15
2018-04-28T03:17:58.841Z,1002.17
2018-04-28T03:18:24.981Z,1002.15
2018-04-28T03:18:51.121Z,1002.17
2018-04-28T03:19:17.260Z,1002.2
2018-04-28T03:19:43.392Z,1002.15
2018-04-28T03:20:09.536Z,1002.16
2018-04-28T03:20:35.668Z,1002.15
2018-04-28T03:21:01.811Z,1002.13
2018-04-28T03:21:27.976Z,1002.13
2018-04-28T03:21:54.111Z,1002.14
2018-04-28T03:22:20.247Z,1002.16
2018-04-28T03:22:46.389Z,1002.13
2018-04-28T03:23:12.545Z,1002.13
2018-04-28T03:23:38.715Z,1002.14
2018-04-28T03:24:04.852Z,1002.13
2018-04-28T03:24:30.990Z,1002.13
2018-04-28T03:24:57.121Z,1002.14
2018-04-28T03:25:23.270Z,1002.11
2018-04-28T03:25:49.453Z,1002.13
2018-04-28T03:26:15.593Z,1002.09
2018-04-28T03:26:41.722Z,1002.14
2018-04-28T03:27:07.864Z,1002.08
2018-04-28T03:27:34.003Z,1002.16
2018-04-28T03:28:00.139Z,1002.14
2018-04-28T03:28:26.299Z,1002.12
2018-04-28T03:28:52.467Z,1002.14
2018-04-28T03:29:18.601Z,1002.12
2018-04-28T03:29:44.744Z,1002.14
2018-04-28T03:30:10.884Z,1002.11
2018-04-28T03:30:37.023Z,1002.1
2018-04-28T03:31:03.150Z,1002.14
2018-04-28T03:31:29.384Z,1002.14
2018-04-28T03:31:55.514Z,1002.12
2018-04-28T03:32:21.610Z,1002.12
2018-04-28T03:32:47.743Z,1002.13
2018-04-28T03:33:13.887Z,1002.14
2018-04-28T03:33:40.022Z,1002.14
2018-04-28T03:34:06.158Z,1002.12
2018-04-28T03:34:32.289Z,1002.13
2018-04-28T03:34:58.438Z,1002.13
2018-04-28T03:35:24.601Z,1002.13
2018-04-28T03:35:50.735Z,1002.09
2018-04-28T03:36:16.871Z,1002.14
2018-04-28T03:36:43.038Z,1002.15
2018-04-28T03:37:09.169Z,1002.1
2018-04-28T03:37:35.341Z,1002.13
2018-04-28T03:38:01.479Z,1002.13
2018-04-28T03:38:27.612Z,1002.13
2018-04-28T03:38:53.776Z,1002.14
2018-04-28T03:39:19.913Z,1002.11
2018-04-28T03:39:46.052Z,1002.11
2018-04-28T03:40:12.219Z,1002.11
2018-04-28T03:40:38.353Z,1002.13
2018-04-28T03:41:04.494Z,1002.12
2018-04-28T03:41:30.660Z,1002.09
2018-04-28T03:41:56.825Z,1002.15
2018-04-28T03:42:22.982Z,1002.14
2018-04-28T03:42:49.131Z,1002.1
2018-04-28T03:43:15.286Z,1002.16
2018-04-28T03:43:41.426Z,1002.13
2018-04-28T03:44:07.568Z,1002.15
2018-04-28T03:44:33.710Z,1002.15
2018-04-28T03:44:59.867Z,1002.14
2018-04-28T03:45:26.009Z,1002.13
2018-04-28T03:45:52.152Z,1002.15
2018-04-28T03:46:18.315Z,1002.13
2018-04-28T03:46:44.463Z,1002.13
2018-04-28T03:47:10.592Z,1002.16
2018-04-28T03:47:36.750Z,1002.13
2018-04-28T03:48:02.897Z,1002.14
2018-04-28T03:48:29.032Z,1002.17
2018-04-28T03:48:55.211Z,1002.2
2018-04-28T03:49:21.378Z,1002.15
2018-04-28T03:49:47.519Z,1002.17
2018-04-28T03:50:13.689Z,1002.16
2018-04-28T03:50:39.870Z,1002.18
2018-04-28T03:51:06.007Z,1002.17
2018-04-28T03:51:32.166Z,1002.17
2018-04-28T03:51:58.303Z,1002.16
2018-04-28T03:52:24.435Z,1002.14
2018-04-28T03:52:50.575Z,1002.16
2018-04-28T03:53:16.718Z,1002.14
2018-04-28T03:53:42.856Z,1002.16
2018-04-28T03:54:09.015Z,1002.13
2018-04-28T03:54:35.159Z,1002.14
2018-04-28T03:55:01.291Z,1002.14
2018-04-28T03:55:27.463Z,1002.14
2018-04-28T03:55:53.605Z,1002.15
2018-04-28T03:56:19.736Z,1002.16
2018-04-28T03:56:45.867Z,1002.16
2018-04-28T03:57:12.002Z,1002.17
2018-04-28T03:57:38.150Z,1002.24
2018-04-28T03:58:04.283Z,1002.18
2018-04-28T03:58:30.449Z,1002.16
2018-04-28T03:58:56.604Z,1002.15
2018-04-28T03:59:22.768Z,1002.13
2018-04-28T03:59:48.898Z,1002.16
2018-04-28T04:00:15.063Z,1002.15
2018-04-28T04:00:41.203Z,1002.14
2018-04-28T04:01:07.345Z,1002.17
2018-04-28T04:01:33.480Z,1002.12
2018-04-28T04:01:59.645Z,1002.17
2018-04-28T04:02:25.779Z,1002.14
2018-04-28T04:02:51.940Z,1002.15
2018-04-28T04:03:18.078Z,1002.17
2018-04-28T04:03:44.224Z,1002.17
2018-04-28T04:04:10.370Z,1002.23
2018-04-28T04:04:36.506Z,1002.19
2018-04-28T04:05:02.663Z,1002.25
2018-04-28T04:05:28.802Z,1002.21
2018-04-28T04:05:54.936Z,1002.23
2018-04-28T04:06:21.078Z,1002.25
2018-04-28T04:06:47.213Z,1002.19
2018-04-28T04:07:13.358Z,1002.18
2018-04-28T04:07:39.493Z,1002.24
2018-04-28T04:08:05.636Z,1002.2
2018-04-28T04:08:31.774Z,1002.21
2018-04-28T04:08:57.911Z,1002.21
2018-04-28T04:09:24.052Z,1002.22
2018-04-28T04:09:50.187Z,1002.22
2018-04-28T04:10:16.327Z,1002.21
2018-04-28T04:10:42.492Z,1002.19
2018-04-28T04:11:08.634Z,1002.2
2018-04-28T04:11:34.767Z,1002.2
2018-04-28T04:12:00.907Z,1002.22
2018-04-28T04:12:27.053Z,1002.21
2018-04-28T04:12:53.205Z,1002.22
2018-04-28T04:13:19.346Z,1002.26
2018-04-28T04:13:45.478Z,1002.27
2018-04-28T04:14:11.621Z,1002.25
2018-04-28T04:14:37.755Z,1002.21
2018-04-28T04:15:03.902Z,1002.22
2018-04-28T04:15:30.037Z,1002.2
2018-04-28T04:15:56.174Z,1002.22
2018-04-28T04:16:22.342Z,1002.23
2018-04-28T04:16:48.481Z,1002.23
2018-04-28T04:17:14.612Z,1002.23
2018-04-28T04:17:40.777Z,1002.26
2018-04-28T04:18:06.982Z,1002.25
2018-04-28T04:18:33.076Z,1002.27
2018-04-28T04:18:59.234Z,1002.3
2018-04-28T04:19:25.367Z,1002.23
2018-04-28T04:19:51.511Z,1002.25
2018-04-28T04:20:17.678Z,1002.28
2018-04-28T04:20:43.814Z,1002.28
2018-04-28T04:21:09.959Z,1002.28
2018-04-28T04:21:36.100Z,1002.24
2018-04-28T04:22:02.227Z,1002.26
2018-04-28T04:22:28.360Z,1002.3
2018-04-28T04:22:54.506Z,1002.24
2018-04-28T04:23:20.645Z,1002.27
2018-04-28T04:23:46.783Z,1002.24
2018-04-28T04:24:12.920Z,1002.29
2018-04-28T04:24:39.049Z,1002.29
2018-04-28T04:25:05.188Z,1002.3
2018-04-28T04:25:31.329Z,1002.27
2018-04-28T04:25:57.460Z,1002.3
2018-04-28T04:26:23.693Z,1002.34
2018-04-28T04:26:49.769Z,1002.33
2018-04-28T04:27:15.930Z,1002.36
2018-04-28T04:27:42.068Z,1002.37
2018-04-28T04:28:08.214Z,1002.38
2018-04-28T04:28:34.350Z,1002.41
2018-04-28T04:29:00.496Z,1002.41
2018-04-28T04:29:26.663Z,1002.45
2018-04-28T04:29:52.801Z,1002.42
2018-04-28T04:30:18.958Z,1002.4
2018-04-28T04:30:45.097Z,1002.43
2018-04-28T04:31:11.233Z,1002.43
2018-04-28T04:31:37.374Z,1002.47
2018-04-28T04:32:03.514Z,1002.45
2018-04-28T04:32:29.644Z,1002.49
2018-04-28T04:32:55.781Z,1002.47
2018-04-28T04:33:21.923Z,1002.5
2018-04-28T04:33:48.060Z,1002.51
2018-04-28T04:34:14.200Z,1002.51
2018-04-28T04:34:40.364Z,1002.5
2018-04-28T04:35:06.496Z,1002.52
2018-04-28T04:35:32.633Z,1002.55
2018-04-28T04:35:58.780Z,1002.51
2018-04-28T04:36:24.919Z,1002.5
2018-04-28T04:36:51.050Z,1002.51
2018-04-28T04:37:17.223Z,1002.51
2018-04-28T04:37:43.409Z,1002.52
2018-04-28T04:38:09.520Z,1002.5
2018-04-28T04:38:35.663Z,1002.51
2018-04-28T04:39:01.800Z,1002.46
2018-04-28T04:39:27.946Z,1002.44
2018-04-28T04:39:54.084Z,1002.55
2018-04-28T04:40:20.225Z,1002.54
2018-04-28T04:40:46.371Z,1002.53
2018-04-28T04:41:12.506Z,1002.55
2018-04-28T04:41:38.642Z,1002.57
2018-04-28T04:42:04.777Z,1002.62
2018-04-28T04:42:30.917Z,1002.56
2018-04-28T04:42:57.064Z,1002.56
2018-04-28T04:43:23.226Z,1002.58
2018-04-28T04:43:49.364Z,1002.64
2018-04-28T04:44:15.503Z,1002.61
2018-04-28T04:44:41.641Z,1002.57
2018-04-28T04:45:07.807Z,1002.61
2018-04-28T04:45:33.972Z,1002.65
2018-04-28T04:46:00.098Z,1002.63
2018-04-28T04:46:26.240Z,1002.59
2018-04-28T04:46:52.406Z,1002.68
2018-04-28T04:47:18.539Z,1002.63
2018-04-28T04:47:44.697Z,1002.7
2018-04-28T04:48:10.869Z,1002.67
2018-04-28T04:48:37.022Z,1002.64
2018-04-28T04:49:03.145Z,1002.68
2018-04-28T04:49:29.285Z,1002.7
2018-04-28T04:49:55.429Z,1002.7
2018-04-28T04:50:21.561Z,1002.69
2018-04-28T04:50:47.704Z,1002.71
2018-04-28T04:51:13.841Z,1002.7
2018-04-28T04:51:39.978Z,1002.68
2018-04-28T04:52:06.141Z,1002.69
2018-04-28T04:52:32.280Z,1002.71
2018-04-28T04:52:58.415Z,1002.74
2018-04-28T04:53:24.556Z,1002.72
2018-04-28T04:53:50.692Z,1002.7
2018-04-28T04:54:16.832Z,1002.73
2018-04-28T04:54:42.975Z,1002.72
2018-04-28T04:55:09.112Z,1002.75
2018-04-28T04:55:35.267Z,1002.77
2018-04-28T04:56:01.411Z,1002.77
2018-04-28T04:56:27.549Z,1002.76
2018-04-28T04:56:53.687Z,1002.73
2018-04-28T04:57:19.827Z,1002.74
2018-04-28T04:57:45.968Z,1002.77
2018-04-28T04:58:12.124Z,1002.73
2018-04-28T04:58:38.260Z,1002.69
2018-04-28T04:59:04.397Z,1002.66
2018-04-28T04:59:30.540Z,1002.71
2018-04-28T04:59:56.671Z,1002.76
2018-04-28T05:00:22.817Z,1002.74
2018-04-28T05:00:48.956Z,1002.73
2018-04-28T05:01:15.112Z,1002.73
2018-04-28T05:01:41.246Z,1002.74
2018-04-28T05:02:07.395Z,1002.79
2018-04-28T05:02:33.534Z,1002.77
2018-04-28T05:02:59.712Z,1002.8
2018-04-28T05:03:25.873Z,1002.84
2018-04-28T05:03:52.001Z,1002.88
2018-04-28T05:04:18.134Z,1002.8
2018-04-28T05:04:44.333Z,1002.83
2018-04-28T05:05:10.476Z,1002.8
2018-04-28T05:05:36.617Z,1002.86
2018-04-28T05:06:02.751Z,1002.83
2018-04-28T05:06:28.913Z,1002.82
2018-04-28T05:06:55.051Z,1002.87
2018-04-28T05:07:21.214Z,1002.82
2018-04-28T05:07:47.348Z,1002.81
2018-04-28T05:08:13.488Z,1002.81
2018-04-28T05:08:39.622Z,1002.89
2018-04-28T05:09:05.765Z,1002.85
2018-04-28T05:09:31.904Z,1002.84
2018-04-28T05:09:58.048Z,1002.84
2018-04-28T05:10:24.189Z,1002.85
2018-04-28T05:10:50.321Z,1002.85
2018-04-28T05:11:16.459Z,1002.95
2018-04-28T05:11:42.617Z,1002.9
2018-04-28T05:12:08.762Z,1002.88
2018-04-28T05:12:34.898Z,1002.89
2018-04-28T05:13:01.037Z,1002.85
2018-04-28T05:13:27.177Z,1002.92
2018-04-28T05:13:53.315Z,1002.9
2018-04-28T05:14:19.446Z,1002.95
2018-04-28T05:14:45.589Z,1002.93
2018-04-28T05:15:11.723Z,1002.95
2018-04-28T05:15:37.859Z,1002.91
2018-04-28T05:16:03.995Z,1002.92
2018-04-28T05:16:30.166Z,1002.96
2018-04-28T05:16:56.278Z,1002.93
2018-04-28T05:17:22.415Z,1002.95